sensor_id;sensor_type;location;lat;lon;timestamp;P1;durP1;ratioP1;P2;durP2;ratioP2
12908;SDS011;6522;49.622;6.126;2023-03-14T00:00:35;5.30;;;1.90;;
12908;SDS011;6522;49.622;6.126;2023-03-14T00:03:22;7.67;;;2.47;;
12908;SDS011;6522;49.622;6.126;2023-03-14T00:06:09;9.13;;;2.20;;
12908;SDS011;6522;49.622;6.126;2023-03-14T00:08:55;5.30;;;2.60;;
12908;SDS011;6522;49.622;6.126;2023-03-14T00:11:42;9.25;;;3.20;;
12908;SDS011;6522;49.622;6.126;2023-03-14T00:14:29;7.07;;;2.45;;
12908;SDS011;6522;49.622;6.126;2023-03-14T00:17:15;7.18;;;2.65;;
12908;SDS011;6522;49.622;6.126;2023-03-14T00:20:05;8.00;;;2.58;;
12908;SDS011;6522;49.622;6.126;2023-03-14T00:22:49;8.85;;;3.00;;
12908;SDS011;6522;49.622;6.126;2023-03-14T00:25:35;4.68;;;2.10;;
12908;SDS011;6522;49.622;6.126;2023-03-14T00:28:22;7.35;;;3.00;;
12908;SDS011;6522;49.622;6.126;2023-03-14T00:31:09;8.27;;;2.65;;
12908;SDS011;6522;49.622;6.126;2023-03-14T00:33:56;5.47;;;2.30;;
12908;SDS011;6522;49.622;6.126;2023-03-14T00:36:42;4.43;;;2.62;;
12908;SDS011;6522;49.622;6.126;2023-03-14T00:39:29;8.23;;;2.50;;
12908;SDS011;6522;49.622;6.126;2023-03-14T00:42:16;8.20;;;2.75;;
12908;SDS011;6522;49.622;6.126;2023-03-14T00:45:03;9.82;;;3.25;;
12908;SDS011;6522;49.622;6.126;2023-03-14T00:47:50;9.85;;;2.40;;
12908;SDS011;6522;49.622;6.126;2023-03-14T00:50:36;4.57;;;2.80;;
12908;SDS011;6522;49.622;6.126;2023-03-14T00:53:23;4.80;;;3.05;;
12908;SDS011;6522;49.622;6.126;2023-03-14T00:56:11;10.30;;;3.95;;
12908;SDS011;6522;49.622;6.126;2023-03-14T00:58:56;6.62;;;2.83;;
12908;SDS011;6522;49.622;6.126;2023-03-14T01:01:44;4.15;;;2.75;;
12908;SDS011;6522;49.622;6.126;2023-03-14T01:04:30;17.10;;;2.83;;
12908;SDS011;6522;49.622;6.126;2023-03-14T01:07:17;4.53;;;2.60;;
12908;SDS011;6522;49.622;6.126;2023-03-14T01:10:04;7.18;;;2.65;;
12908;SDS011;6522;49.622;6.126;2023-03-14T01:12:51;6.90;;;2.83;;
12908;SDS011;6522;49.622;6.126;2023-03-14T01:15:38;11.57;;;2.85;;
12908;SDS011;6522;49.622;6.126;2023-03-14T01:18:25;5.97;;;2.55;;
12908;SDS011;6522;49.622;6.126;2023-03-14T01:21:19;5.30;;;2.28;;
12908;SDS011;6522;49.622;6.126;2023-03-14T01:24:05;6.10;;;2.70;;
12908;SDS011;6522;49.622;6.126;2023-03-14T01:26:52;4.28;;;2.50;;
12908;SDS011;6522;49.622;6.126;2023-03-14T01:29:39;11.65;;;2.65;;
12908;SDS011;6522;49.622;6.126;2023-03-14T01:32:26;7.15;;;1.95;;
12908;SDS011;6522;49.622;6.126;2023-03-14T01:35:13;4.30;;;1.90;;
12908;SDS011;6522;49.622;6.126;2023-03-14T01:37:59;8.90;;;2.42;;
12908;SDS011;6522;49.622;6.126;2023-03-14T01:40:46;4.70;;;2.10;;
12908;SDS011;6522;49.622;6.126;2023-03-14T01:43:33;4.85;;;2.12;;
12908;SDS011;6522;49.622;6.126;2023-03-14T01:46:22;5.20;;;2.42;;
12908;SDS011;6522;49.622;6.126;2023-03-14T01:49:09;5.20;;;3.00;;
12908;SDS011;6522;49.622;6.126;2023-03-14T01:55:01;6.57;;;2.10;;
12908;SDS011;6522;49.622;6.126;2023-03-14T01:57:47;2.42;;;2.20;;
12908;SDS011;6522;49.622;6.126;2023-03-14T02:00:32;5.68;;;2.28;;
12908;SDS011;6522;49.622;6.126;2023-03-14T02:03:20;4.90;;;2.12;;
12908;SDS011;6522;49.622;6.126;2023-03-14T02:06:06;3.78;;;1.83;;
12908;SDS011;6522;49.622;6.126;2023-03-14T02:08:53;11.60;;;2.85;;
12908;SDS011;6522;49.622;6.126;2023-03-14T02:11:40;4.82;;;1.95;;
12908;SDS011;6522;49.622;6.126;2023-03-14T02:14:36;12.65;;;3.42;;
12908;SDS011;6522;49.622;6.126;2023-03-14T02:17:17;3.28;;;2.00;;
12908;SDS011;6522;49.622;6.126;2023-03-14T02:20:04;6.43;;;2.85;;
12908;SDS011;6522;49.622;6.126;2023-03-14T02:22:48;5.62;;;2.28;;
12908;SDS011;6522;49.622;6.126;2023-03-14T02:25:39;3.97;;;2.67;;
12908;SDS011;6522;49.622;6.126;2023-03-14T02:28:25;17.60;;;3.70;;
12908;SDS011;6522;49.622;6.126;2023-03-14T02:31:12;6.45;;;2.33;;
12908;SDS011;6522;49.622;6.126;2023-03-14T02:33:58;5.55;;;2.60;;
12908;SDS011;6522;49.622;6.126;2023-03-14T02:36:45;4.53;;;2.72;;
12908;SDS011;6522;49.622;6.126;2023-03-14T02:39:35;7.53;;;2.05;;
12908;SDS011;6522;49.622;6.126;2023-03-14T02:42:18;3.55;;;2.30;;
12908;SDS011;6522;49.622;6.126;2023-03-14T02:47:57;6.05;;;2.17;;
12908;SDS011;6522;49.622;6.126;2023-03-14T02:50:41;4.65;;;2.50;;
12908;SDS011;6522;49.622;6.126;2023-03-14T02:53:30;6.62;;;2.30;;
12908;SDS011;6522;49.622;6.126;2023-03-14T02:56:15;3.25;;;1.40;;
12908;SDS011;6522;49.622;6.126;2023-03-14T02:59:02;3.25;;;1.92;;
12908;SDS011;6522;49.622;6.126;2023-03-14T03:01:48;3.55;;;1.92;;
12908;SDS011;6522;49.622;6.126;2023-03-14T03:04:35;2.35;;;1.73;;
12908;SDS011;6522;49.622;6.126;2023-03-14T03:07:22;2.00;;;1.55;;
12908;SDS011;6522;49.622;6.126;2023-03-14T03:10:09;5.32;;;2.15;;
12908;SDS011;6522;49.622;6.126;2023-03-14T03:12:56;3.05;;;1.50;;
12908;SDS011;6522;49.622;6.126;2023-03-14T03:15:42;2.03;;;1.55;;
12908;SDS011;6522;49.622;6.126;2023-03-14T03:18:29;4.30;;;1.62;;
12908;SDS011;6522;49.622;6.126;2023-03-14T03:21:16;2.92;;;1.40;;
12908;SDS011;6522;49.622;6.126;2023-03-14T03:24:03;3.05;;;1.65;;
12908;SDS011;6522;49.622;6.126;2023-03-14T03:26:49;3.37;;;1.67;;
12908;SDS011;6522;49.622;6.126;2023-03-14T03:29:36;2.45;;;1.70;;
12908;SDS011;6522;49.622;6.126;2023-03-14T03:32:23;0.98;;;0.90;;
12908;SDS011;6522;49.622;6.126;2023-03-14T03:35:10;1.00;;;0.90;;
12908;SDS011;6522;49.622;6.126;2023-03-14T03:37:57;0.90;;;0.90;;
12908;SDS011;6522;49.622;6.126;2023-03-14T03:40:44;0.90;;;0.90;;
12908;SDS011;6522;49.622;6.126;2023-03-14T03:43:30;0.90;;;0.90;;
12908;SDS011;6522;49.622;6.126;2023-03-14T03:46:17;0.90;;;0.90;;
12908;SDS011;6522;49.622;6.126;2023-03-14T03:49:04;0.98;;;0.90;;
12908;SDS011;6522;49.622;6.126;2023-03-14T03:51:51;0.80;;;0.80;;
12908;SDS011;6522;49.622;6.126;2023-03-14T03:54:38;0.80;;;0.80;;
12908;SDS011;6522;49.622;6.126;2023-03-14T03:57:25;0.85;;;0.80;;
12908;SDS011;6522;49.622;6.126;2023-03-14T04:00:11;1.00;;;0.90;;
12908;SDS011;6522;49.622;6.126;2023-03-14T04:02:58;1.00;;;0.90;;
12908;SDS011;6522;49.622;6.126;2023-03-14T04:05:45;0.88;;;0.88;;
12908;SDS011;6522;49.622;6.126;2023-03-14T04:08:32;0.95;;;0.90;;
12908;SDS011;6522;49.622;6.126;2023-03-14T04:11:18;0.82;;;0.82;;
12908;SDS011;6522;49.622;6.126;2023-03-14T04:14:05;0.80;;;0.80;;
12908;SDS011;6522;49.622;6.126;2023-03-14T04:16:52;0.80;;;0.80;;
12908;SDS011;6522;49.622;6.126;2023-03-14T04:19:38;1.00;;;0.90;;
12908;SDS011;6522;49.622;6.126;2023-03-14T04:22:25;0.95;;;0.85;;
12908;SDS011;6522;49.622;6.126;2023-03-14T04:25:12;0.85;;;0.85;;
12908;SDS011;6522;49.622;6.126;2023-03-14T04:27:59;0.88;;;0.80;;
12908;SDS011;6522;49.622;6.126;2023-03-14T04:30:46;1.00;;;0.90;;
12908;SDS011;6522;49.622;6.126;2023-03-14T04:33:33;0.80;;;0.80;;
12908;SDS011;6522;49.622;6.126;2023-03-14T04:36:19;0.90;;;0.73;;
12908;SDS011;6522;49.622;6.126;2023-03-14T04:39:06;1.00;;;0.90;;
12908;SDS011;6522;49.622;6.126;2023-03-14T04:41:53;0.95;;;0.88;;
12908;SDS011;6522;49.622;6.126;2023-03-14T04:44:39;1.00;;;0.90;;
12908;SDS011;6522;49.622;6.126;2023-03-14T04:47:27;1.00;;;0.90;;
12908;SDS011;6522;49.622;6.126;2023-03-14T04:50:13;0.88;;;0.80;;
12908;SDS011;6522;49.622;6.126;2023-03-14T04:53:00;0.70;;;0.40;;
12908;SDS011;6522;49.622;6.126;2023-03-14T04:55:48;0.93;;;0.90;;
12908;SDS011;6522;49.622;6.126;2023-03-14T04:58:34;0.80;;;0.80;;
12908;SDS011;6522;49.622;6.126;2023-03-14T05:01:21;0.85;;;0.85;;
12908;SDS011;6522;49.622;6.126;2023-03-14T05:04:07;1.00;;;0.90;;
12908;SDS011;6522;49.622;6.126;2023-03-14T05:06:54;0.80;;;0.80;;
12908;SDS011;6522;49.622;6.126;2023-03-14T05:09:41;0.90;;;0.90;;
12908;SDS011;6522;49.622;6.126;2023-03-14T05:12:28;1.00;;;0.90;;
12908;SDS011;6522;49.622;6.126;2023-03-14T05:15:15;1.05;;;0.95;;
12908;SDS011;6522;49.622;6.126;2023-03-14T05:18:02;1.08;;;0.98;;
12908;SDS011;6522;49.622;6.126;2023-03-14T05:20:50;1.10;;;1.00;;
12908;SDS011;6522;49.622;6.126;2023-03-14T05:23:35;0.70;;;0.40;;
12908;SDS011;6522;49.622;6.126;2023-03-14T05:26:23;1.00;;;1.00;;
12908;SDS011;6522;49.622;6.126;2023-03-14T05:29:09;1.10;;;1.00;;
12908;SDS011;6522;49.622;6.126;2023-03-14T05:31:56;1.10;;;1.00;;
12908;SDS011;6522;49.622;6.126;2023-03-14T05:34:42;1.20;;;1.10;;
12908;SDS011;6522;49.622;6.126;2023-03-14T05:37:29;1.00;;;1.00;;
12908;SDS011;6522;49.622;6.126;2023-03-14T05:40:16;1.10;;;1.10;;
12908;SDS011;6522;49.622;6.126;2023-03-14T05:43:03;1.20;;;1.10;;
12908;SDS011;6522;49.622;6.126;2023-03-14T05:45:50;1.30;;;1.20;;
12908;SDS011;6522;49.622;6.126;2023-03-14T05:48:37;1.10;;;1.00;;
12908;SDS011;6522;49.622;6.126;2023-03-14T05:51:24;1.17;;;1.08;;
12908;SDS011;6522;49.622;6.126;2023-03-14T05:54:11;1.17;;;1.08;;
12908;SDS011;6522;49.622;6.126;2023-03-14T05:56:58;1.70;;;1.60;;
12908;SDS011;6522;49.622;6.126;2023-03-14T05:59:45;1.08;;;1.08;;
12908;SDS011;6522;49.622;6.126;2023-03-14T06:02:32;1.00;;;1.00;;
12908;SDS011;6522;49.622;6.126;2023-03-14T06:05:19;1.20;;;1.10;;
12908;SDS011;6522;49.622;6.126;2023-03-14T06:08:06;1.17;;;1.10;;
12908;SDS011;6522;49.622;6.126;2023-03-14T06:10:53;0.70;;;0.57;;
12908;SDS011;6522;49.622;6.126;2023-03-14T06:13:39;1.30;;;1.20;;
12908;SDS011;6522;49.622;6.126;2023-03-14T06:16:26;1.30;;;1.20;;
12908;SDS011;6522;49.622;6.126;2023-03-14T06:19:13;1.10;;;1.10;;
12908;SDS011;6522;49.622;6.126;2023-03-14T06:22:00;1.30;;;1.20;;
12908;SDS011;6522;49.622;6.126;2023-03-14T06:24:46;1.15;;;1.15;;
12908;SDS011;6522;49.622;6.126;2023-03-14T06:27:33;1.30;;;1.20;;
12908;SDS011;6522;49.622;6.126;2023-03-14T06:30:20;1.30;;;1.20;;
12908;SDS011;6522;49.622;6.126;2023-03-14T06:33:06;1.20;;;1.10;;
12908;SDS011;6522;49.622;6.126;2023-03-14T06:35:53;1.30;;;1.20;;
12908;SDS011;6522;49.622;6.126;2023-03-14T06:38:40;1.17;;;1.17;;
12908;SDS011;6522;49.622;6.126;2023-03-14T06:41:27;1.20;;;1.20;;
12908;SDS011;6522;49.622;6.126;2023-03-14T06:44:13;2.05;;;1.95;;
12908;SDS011;6522;49.622;6.126;2023-03-14T06:47:01;1.10;;;1.10;;
12908;SDS011;6522;49.622;6.126;2023-03-14T06:49:47;1.10;;;1.10;;
12908;SDS011;6522;49.622;6.126;2023-03-14T06:52:34;1.30;;;1.20;;
12908;SDS011;6522;49.622;6.126;2023-03-14T06:55:21;1.40;;;1.30;;
12908;SDS011;6522;49.622;6.126;2023-03-14T06:58:07;1.23;;;1.12;;
12908;SDS011;6522;49.622;6.126;2023-03-14T07:00:54;0.70;;;0.60;;
12908;SDS011;6522;49.622;6.126;2023-03-14T07:03:41;1.30;;;1.20;;
12908;SDS011;6522;49.622;6.126;2023-03-14T07:06:28;1.20;;;1.20;;
12908;SDS011;6522;49.622;6.126;2023-03-14T07:09:17;1.20;;;1.10;;
12908;SDS011;6522;49.622;6.126;2023-03-14T07:12:04;1.15;;;1.15;;
12908;SDS011;6522;49.622;6.126;2023-03-14T07:14:51;1.42;;;1.33;;
12908;SDS011;6522;49.622;6.126;2023-03-14T07:17:38;1.30;;;1.20;;
12908;SDS011;6522;49.622;6.126;2023-03-14T07:20:24;1.30;;;1.20;;
12908;SDS011;6522;49.622;6.126;2023-03-14T07:23:11;1.10;;;1.10;;
12908;SDS011;6522;49.622;6.126;2023-03-14T07:25:58;1.10;;;1.10;;
12908;SDS011;6522;49.622;6.126;2023-03-14T07:28:45;1.10;;;1.10;;
12908;SDS011;6522;49.622;6.126;2023-03-14T07:31:31;1.17;;;1.10;;
12908;SDS011;6522;49.622;6.126;2023-03-14T07:34:18;1.10;;;1.10;;
12908;SDS011;6522;49.622;6.126;2023-03-14T07:37:05;1.10;;;1.10;;
12908;SDS011;6522;49.622;6.126;2023-03-14T07:39:51;1.05;;;1.05;;
12908;SDS011;6522;49.622;6.126;2023-03-14T07:42:38;1.10;;;1.10;;
12908;SDS011;6522;49.622;6.126;2023-03-14T07:45:25;1.20;;;1.20;;
12908;SDS011;6522;49.622;6.126;2023-03-14T07:48:12;1.10;;;1.10;;
12908;SDS011;6522;49.622;6.126;2023-03-14T07:50:59;1.02;;;1.02;;
12908;SDS011;6522;49.622;6.126;2023-03-14T07:53:45;0.90;;;0.90;;
12908;SDS011;6522;49.622;6.126;2023-03-14T07:56:32;1.00;;;1.00;;
12908;SDS011;6522;49.622;6.126;2023-03-14T07:59:19;0.98;;;0.98;;
12908;SDS011;6522;49.622;6.126;2023-03-14T08:02:08;1.00;;;1.00;;
12908;SDS011;6522;49.622;6.126;2023-03-14T08:04:52;0.90;;;0.90;;
12908;SDS011;6522;49.622;6.126;2023-03-14T08:07:39;1.10;;;1.10;;
12908;SDS011;6522;49.622;6.126;2023-03-14T08:10:26;0.70;;;0.40;;
12908;SDS011;6522;49.622;6.126;2023-03-14T08:13:13;1.20;;;1.20;;
12908;SDS011;6522;49.622;6.126;2023-03-14T08:16:00;1.00;;;1.00;;
12908;SDS011;6522;49.622;6.126;2023-03-14T08:18:47;0.98;;;0.98;;
12908;SDS011;6522;49.622;6.126;2023-03-14T08:21:34;1.00;;;1.00;;
12908;SDS011;6522;49.622;6.126;2023-03-14T08:24:21;1.10;;;1.10;;
12908;SDS011;6522;49.622;6.126;2023-03-14T08:27:08;1.10;;;1.10;;
12908;SDS011;6522;49.622;6.126;2023-03-14T08:29:55;1.10;;;1.10;;
12908;SDS011;6522;49.622;6.126;2023-03-14T08:32:42;1.12;;;1.12;;
12908;SDS011;6522;49.622;6.126;2023-03-14T08:35:29;1.20;;;1.20;;
12908;SDS011;6522;49.622;6.126;2023-03-14T08:38:15;1.10;;;1.10;;
12908;SDS011;6522;49.622;6.126;2023-03-14T08:41:02;0.70;;;0.50;;
12908;SDS011;6522;49.622;6.126;2023-03-14T08:43:49;1.10;;;1.10;;
12908;SDS011;6522;49.622;6.126;2023-03-14T08:46:35;1.37;;;1.30;;
12908;SDS011;6522;49.622;6.126;2023-03-14T08:49:22;1.10;;;1.10;;
12908;SDS011;6522;49.622;6.126;2023-03-14T08:52:09;1.00;;;1.00;;
12908;SDS011;6522;49.622;6.126;2023-03-14T08:54:56;1.10;;;1.10;;
12908;SDS011;6522;49.622;6.126;2023-03-14T08:57:42;1.10;;;1.10;;
12908;SDS011;6522;49.622;6.126;2023-03-14T09:00:30;1.10;;;1.10;;
12908;SDS011;6522;49.622;6.126;2023-03-14T09:03:17;1.10;;;1.10;;
12908;SDS011;6522;49.622;6.126;2023-03-14T09:06:04;1.10;;;1.10;;
12908;SDS011;6522;49.622;6.126;2023-03-14T09:08:50;1.00;;;1.00;;
12908;SDS011;6522;49.622;6.126;2023-03-14T09:11:37;1.17;;;1.15;;
12908;SDS011;6522;49.622;6.126;2023-03-14T09:14:23;0.70;;;0.40;;
12908;SDS011;6522;49.622;6.126;2023-03-14T09:17:10;0.90;;;0.90;;
12908;SDS011;6522;49.622;6.126;2023-03-14T09:19:57;0.95;;;0.95;;
12908;SDS011;6522;49.622;6.126;2023-03-14T09:22:44;0.90;;;0.90;;
12908;SDS011;6522;49.622;6.126;2023-03-14T09:25:30;1.00;;;1.00;;
12908;SDS011;6522;49.622;6.126;2023-03-14T09:28:17;1.00;;;1.00;;
12908;SDS011;6522;49.622;6.126;2023-03-14T09:31:08;1.05;;;1.05;;
12908;SDS011;6522;49.622;6.126;2023-03-14T09:33:54;1.10;;;1.00;;
12908;SDS011;6522;49.622;6.126;2023-03-14T09:36:40;1.50;;;1.40;;
12908;SDS011;6522;49.622;6.126;2023-03-14T09:39:27;2.15;;;2.05;;
12908;SDS011;6522;49.622;6.126;2023-03-14T09:42:14;2.20;;;2.10;;
12908;SDS011;6522;49.622;6.126;2023-03-14T09:45:02;2.10;;;2.00;;
12908;SDS011;6522;49.622;6.126;2023-03-14T09:47:48;1.90;;;1.80;;
12908;SDS011;6522;49.622;6.126;2023-03-14T09:50:41;1.75;;;1.65;;
12908;SDS011;6522;49.622;6.126;2023-03-14T09:53:44;2.10;;;2.00;;
12908;SDS011;6522;49.622;6.126;2023-03-14T09:56:31;2.20;;;2.10;;
12908;SDS011;6522;49.622;6.126;2023-03-14T09:59:16;2.00;;;1.90;;
12908;SDS011;6522;49.622;6.126;2023-03-14T10:02:14;1.70;;;1.60;;
12908;SDS011;6522;49.622;6.126;2023-03-14T10:04:59;1.50;;;1.40;;
12908;SDS011;6522;49.622;6.126;2023-03-14T10:07:46;1.30;;;1.20;;
12908;SDS011;6522;49.622;6.126;2023-03-14T10:10:32;1.27;;;1.17;;
12908;SDS011;6522;49.622;6.126;2023-03-14T10:13:23;1.30;;;1.20;;
12908;SDS011;6522;49.622;6.126;2023-03-14T10:16:09;1.80;;;1.70;;
12908;SDS011;6522;49.622;6.126;2023-03-14T10:19:01;1.70;;;1.60;;
12908;SDS011;6522;49.622;6.126;2023-03-14T10:21:43;4.28;;;3.97;;
12908;SDS011;6522;49.622;6.126;2023-03-14T10:24:30;5.40;;;4.90;;
12908;SDS011;6522;49.622;6.126;2023-03-14T10:27:49;6.70;;;5.95;;
12908;SDS011;6522;49.622;6.126;2023-03-14T10:30:14;8.27;;;7.72;;
12908;SDS011;6522;49.622;6.126;2023-03-14T10:32:55;10.70;;;10.10;;
12908;SDS011;6522;49.622;6.126;2023-03-14T10:35:42;12.85;;;11.90;;
12908;SDS011;6522;49.622;6.126;2023-03-14T10:38:32;12.85;;;12.18;;
12908;SDS011;6522;49.622;6.126;2023-03-14T10:41:19;13.98;;;13.27;;
12908;SDS011;6522;49.622;6.126;2023-03-14T10:44:05;14.95;;;14.15;;
12908;SDS011;6522;49.622;6.126;2023-03-14T10:46:55;17.15;;;16.25;;
12908;SDS011;6522;49.622;6.126;2023-03-14T10:49:42;16.15;;;15.38;;
12908;SDS011;6522;49.622;6.126;2023-03-14T10:52:29;17.15;;;16.10;;
12908;SDS011;6522;49.622;6.126;2023-03-14T10:55:15;15.18;;;14.30;;
12908;SDS011;6522;49.622;6.126;2023-03-14T10:58:02;13.70;;;13.02;;
12908;SDS011;6522;49.622;6.126;2023-03-14T11:01:37;10.85;;;10.35;;
12908;SDS011;6522;49.622;6.126;2023-03-14T11:03:35;10.30;;;9.70;;
12908;SDS011;6522;49.622;6.126;2023-03-14T11:06:48;8.77;;;8.40;;
12908;SDS011;6522;49.622;6.126;2023-03-14T11:09:15;10.10;;;9.70;;
12908;SDS011;6522;49.622;6.126;2023-03-14T11:12:04;10.10;;;9.70;;
12908;SDS011;6522;49.622;6.126;2023-03-14T11:14:46;11.60;;;11.00;;
12908;SDS011;6522;49.622;6.126;2023-03-14T11:17:40;13.23;;;12.52;;
12908;SDS011;6522;49.622;6.126;2023-03-14T11:23:38;14.15;;;13.10;;
12908;SDS011;6522;49.622;6.126;2023-03-14T11:29:29;11.23;;;10.63;;
12908;SDS011;6522;49.622;6.126;2023-03-14T11:32:41;14.60;;;14.00;;
12908;SDS011;6522;49.622;6.126;2023-03-14T11:35:03;15.32;;;14.52;;
12908;SDS011;6522;49.622;6.126;2023-03-14T11:37:53;15.40;;;14.70;;
12908;SDS011;6522;49.622;6.126;2023-03-14T11:40:36;15.82;;;15.10;;
12908;SDS011;6522;49.622;6.126;2023-03-14T11:46:15;17.85;;;16.85;;
12908;SDS011;6522;49.622;6.126;2023-03-14T11:52:03;17.83;;;17.00;;
12908;SDS011;6522;49.622;6.126;2023-03-14T11:54:52;17.67;;;16.87;;
12908;SDS011;6522;49.622;6.126;2023-03-14T11:57:35;18.50;;;17.27;;
12908;SDS011;6522;49.622;6.126;2023-03-14T12:00:22;17.12;;;16.40;;
12908;SDS011;6522;49.622;6.126;2023-03-14T12:03:11;17.83;;;17.02;;
12908;SDS011;6522;49.622;6.126;2023-03-14T12:06:01;17.73;;;17.02;;
12908;SDS011;6522;49.622;6.126;2023-03-14T12:08:55;17.10;;;16.30;;
12908;SDS011;6522;49.622;6.126;2023-03-14T12:11:47;17.37;;;16.67;;
12908;SDS011;6522;49.622;6.126;2023-03-14T12:14:32;17.48;;;16.75;;
12908;SDS011;6522;49.622;6.126;2023-03-14T12:17:20;17.25;;;16.55;;
12908;SDS011;6522;49.622;6.126;2023-03-14T12:23:05;16.23;;;15.52;;
12908;SDS011;6522;49.622;6.126;2023-03-14T12:26:07;18.60;;;17.60;;
12908;SDS011;6522;49.622;6.126;2023-03-14T12:31:46;17.17;;;16.33;;
12908;SDS011;6522;49.622;6.126;2023-03-14T12:34:33;17.45;;;16.75;;
12908;SDS011;6522;49.622;6.126;2023-03-14T12:37:22;17.33;;;16.62;;
12908;SDS011;6522;49.622;6.126;2023-03-14T12:40:10;17.37;;;16.67;;
12908;SDS011;6522;49.622;6.126;2023-03-14T12:45:39;14.38;;;13.68;;
12908;SDS011;6522;49.622;6.126;2023-03-14T12:48:26;17.77;;;16.87;;
12908;SDS011;6522;49.622;6.126;2023-03-14T12:51:14;17.77;;;17.08;;
12908;SDS011;6522;49.622;6.126;2023-03-14T12:54:04;18.35;;;17.50;;
12908;SDS011;6522;49.622;6.126;2023-03-14T12:59:52;19.37;;;18.30;;
12908;SDS011;6522;49.622;6.126;2023-03-14T13:02:41;18.90;;;17.87;;
12908;SDS011;6522;49.622;6.126;2023-03-14T13:05:28;17.95;;;17.00;;
12908;SDS011;6522;49.622;6.126;2023-03-14T13:08:15;18.67;;;17.60;;
12908;SDS011;6522;49.622;6.126;2023-03-14T13:11:02;18.30;;;17.50;;
12908;SDS011;6522;49.622;6.126;2023-03-14T13:13:57;18.42;;;17.62;;
12908;SDS011;6522;49.622;6.126;2023-03-14T13:16:44;18.10;;;17.30;;
12908;SDS011;6522;49.622;6.126;2023-03-14T13:19:32;17.70;;;16.90;;
12908;SDS011;6522;49.622;6.126;2023-03-14T13:22:25;17.35;;;16.65;;
12908;SDS011;6522;49.622;6.126;2023-03-14T13:25:11;17.60;;;16.90;;
12908;SDS011;6522;49.622;6.126;2023-03-14T13:27:58;17.92;;;17.12;;
12908;SDS011;6522;49.622;6.126;2023-03-14T13:30:45;18.12;;;17.33;;
12908;SDS011;6522;49.622;6.126;2023-03-14T13:33:32;18.73;;;17.83;;
12908;SDS011;6522;49.622;6.126;2023-03-14T13:36:21;14.60;;;13.80;;
12908;SDS011;6522;49.622;6.126;2023-03-14T13:39:07;19.73;;;18.70;;
12908;SDS011;6522;49.622;6.126;2023-03-14T13:41:52;18.70;;;17.75;;
12908;SDS011;6522;49.622;6.126;2023-03-14T13:44:39;19.23;;;18.42;;
12908;SDS011;6522;49.622;6.126;2023-03-14T13:47:25;19.30;;;18.20;;
12908;SDS011;6522;49.622;6.126;2023-03-14T13:50:15;19.55;;;18.55;;
12908;SDS011;6522;49.622;6.126;2023-03-14T13:53:02;19.70;;;18.80;;
12908;SDS011;6522;49.622;6.126;2023-03-14T13:55:49;19.92;;;18.92;;
12908;SDS011;6522;49.622;6.126;2023-03-14T13:58:35;19.90;;;19.10;;
12908;SDS011;6522;49.622;6.126;2023-03-14T14:01:41;19.62;;;18.42;;
12908;SDS011;6522;49.622;6.126;2023-03-14T14:04:15;19.25;;;18.35;;
12908;SDS011;6522;49.622;6.126;2023-03-14T14:07:06;19.70;;;18.70;;
12908;SDS011;6522;49.622;6.126;2023-03-14T14:09:51;19.30;;;18.40;;
12908;SDS011;6522;49.622;6.126;2023-03-14T14:15:41;19.95;;;19.15;;
12908;SDS011;6522;49.622;6.126;2023-03-14T14:18:28;20.37;;;19.58;;
12908;SDS011;6522;49.622;6.126;2023-03-14T14:21:15;21.10;;;20.00;;
12908;SDS011;6522;49.622;6.126;2023-03-14T14:24:01;20.20;;;19.40;;
12908;SDS011;6522;49.622;6.126;2023-03-14T14:26:54;20.67;;;19.40;;
12908;SDS011;6522;49.622;6.126;2023-03-14T14:29:40;16.58;;;15.77;;
12908;SDS011;6522;49.622;6.126;2023-03-14T14:32:33;20.20;;;19.40;;
12908;SDS011;6522;49.622;6.126;2023-03-14T14:35:23;19.45;;;18.65;;
12908;SDS011;6522;49.622;6.126;2023-03-14T14:38:10;15.63;;;14.55;;
12908;SDS011;6522;49.622;6.126;2023-03-14T14:43:38;17.80;;;16.90;;
12908;SDS011;6522;49.622;6.126;2023-03-14T14:46:25;21.92;;;20.70;;
12908;SDS011;6522;49.622;6.126;2023-03-14T14:49:13;19.02;;;18.23;;
12908;SDS011;6522;49.622;6.126;2023-03-14T14:52:14;12.88;;;12.27;;
12908;SDS011;6522;49.622;6.126;2023-03-14T14:55:00;13.52;;;12.93;;
12908;SDS011;6522;49.622;6.126;2023-03-14T14:57:51;14.52;;;13.80;;
12908;SDS011;6522;49.622;6.126;2023-03-14T15:00:39;12.90;;;12.27;;
12908;SDS011;6522;49.622;6.126;2023-03-14T15:03:25;12.57;;;11.98;;
12908;SDS011;6522;49.622;6.126;2023-03-14T15:06:12;11.50;;;10.80;;
12908;SDS011;6522;49.622;6.126;2023-03-14T15:08:57;11.50;;;10.80;;
12908;SDS011;6522;49.622;6.126;2023-03-14T15:11:45;10.00;;;9.60;;
12908;SDS011;6522;49.622;6.126;2023-03-14T15:14:31;9.23;;;8.48;;
12908;SDS011;6522;49.622;6.126;2023-03-14T15:17:18;11.90;;;11.30;;
12908;SDS011;6522;49.622;6.126;2023-03-14T15:20:05;15.10;;;14.40;;
12908;SDS011;6522;49.622;6.126;2023-03-14T15:22:51;16.05;;;15.35;;
12908;SDS011;6522;49.622;6.126;2023-03-14T15:25:38;16.65;;;15.63;;
12908;SDS011;6522;49.622;6.126;2023-03-14T15:28:28;17.40;;;16.67;;
12908;SDS011;6522;49.622;6.126;2023-03-14T15:31:15;17.12;;;16.35;;
12908;SDS011;6522;49.622;6.126;2023-03-14T15:34:01;13.10;;;12.20;;
12908;SDS011;6522;49.622;6.126;2023-03-14T15:36:47;15.27;;;14.32;;
12908;SDS011;6522;49.622;6.126;2023-03-14T15:39:34;14.77;;;14.07;;
12908;SDS011;6522;49.622;6.126;2023-03-14T15:42:21;12.40;;;11.73;;
12908;SDS011;6522;49.622;6.126;2023-03-14T15:45:07;14.07;;;13.48;;
12908;SDS011;6522;49.622;6.126;2023-03-14T15:47:55;12.10;;;11.15;;
12908;SDS011;6522;49.622;6.126;2023-03-14T15:50:42;9.00;;;8.60;;
12908;SDS011;6522;49.622;6.126;2023-03-14T15:53:28;7.35;;;6.62;;
12908;SDS011;6522;49.622;6.126;2023-03-14T15:56:16;6.20;;;5.70;;
12908;SDS011;6522;49.622;6.126;2023-03-14T15:59:02;4.40;;;4.10;;
12908;SDS011;6522;49.622;6.126;2023-03-14T16:01:48;4.62;;;4.22;;
12908;SDS011;6522;49.622;6.126;2023-03-14T16:04:35;5.00;;;4.60;;
12908;SDS011;6522;49.622;6.126;2023-03-14T16:07:22;5.35;;;4.95;;
12908;SDS011;6522;49.622;6.126;2023-03-14T16:10:10;3.97;;;3.78;;
12908;SDS011;6522;49.622;6.126;2023-03-14T16:12:56;5.60;;;5.20;;
12908;SDS011;6522;49.622;6.126;2023-03-14T16:15:51;5.40;;;4.87;;
12908;SDS011;6522;49.622;6.126;2023-03-14T16:18:31;6.53;;;6.12;;
12908;SDS011;6522;49.622;6.126;2023-03-14T16:21:17;3.80;;;3.50;;
12908;SDS011;6522;49.622;6.126;2023-03-14T16:24:04;5.97;;;5.55;;
12908;SDS011;6522;49.622;6.126;2023-03-14T16:26:50;6.10;;;5.68;;
12908;SDS011;6522;49.622;6.126;2023-03-14T16:29:37;7.05;;;6.65;;
12908;SDS011;6522;49.622;6.126;2023-03-14T16:32:24;7.80;;;7.40;;
12908;SDS011;6522;49.622;6.126;2023-03-14T16:35:11;7.30;;;6.82;;
12908;SDS011;6522;49.622;6.126;2023-03-14T16:37:59;6.65;;;6.05;;
12908;SDS011;6522;49.622;6.126;2023-03-14T16:40:44;6.80;;;6.40;;
12908;SDS011;6522;49.622;6.126;2023-03-14T16:43:31;6.07;;;5.78;;
12908;SDS011;6522;49.622;6.126;2023-03-14T16:46:17;6.82;;;6.12;;
12908;SDS011;6522;49.622;6.126;2023-03-14T16:49:04;5.60;;;5.20;;
12908;SDS011;6522;49.622;6.126;2023-03-14T16:51:51;5.55;;;5.25;;
12908;SDS011;6522;49.622;6.126;2023-03-14T16:54:37;4.60;;;4.20;;
12908;SDS011;6522;49.622;6.126;2023-03-14T16:57:24;6.07;;;5.47;;
12908;SDS011;6522;49.622;6.126;2023-03-14T17:00:11;6.80;;;5.37;;
12908;SDS011;6522;49.622;6.126;2023-03-14T17:02:58;6.18;;;5.15;;
12908;SDS011;6522;49.622;6.126;2023-03-14T17:05:49;4.30;;;4.00;;
12908;SDS011;6522;49.622;6.126;2023-03-14T17:08:35;5.75;;;4.45;;
12908;SDS011;6522;49.622;6.126;2023-03-14T17:11:22;4.90;;;4.50;;
12908;SDS011;6522;49.622;6.126;2023-03-14T17:14:08;9.57;;;4.93;;
12908;SDS011;6522;49.622;6.126;2023-03-14T17:16:55;5.97;;;5.57;;
12908;SDS011;6522;49.622;6.126;2023-03-14T17:19:43;4.82;;;4.43;;
12908;SDS011;6522;49.622;6.126;2023-03-14T17:22:29;4.03;;;3.72;;
12908;SDS011;6522;49.622;6.126;2023-03-14T17:25:16;4.57;;;4.10;;
12908;SDS011;6522;49.622;6.126;2023-03-14T17:28:03;4.65;;;4.30;;